createdAt,value
2022-11-16T00:01:15.271Z,90.13
2022-11-16T00:03:43.092Z,92.78
2022-11-16T00:06:11.513Z,95.47
2022-11-16T00:08:43.873Z,97.43
2022-11-16T00:11:18.979Z,99.35
2022-11-16T00:13:46.031Z,102.07
2022-11-16T00:16:15.838Z,108.28
2022-11-16T00:18:43.555Z,118.82
2022-11-16T00:21:10.412Z,111.45
2022-11-16T00:23:38.807Z,105.55
2022-11-16T00:26:07.530Z,112.38
2022-11-16T00:28:34.717Z,109.70
2022-11-16T00:31:04.265Z,103.40
2022-11-16T00:33:31.530Z,104.28
2022-11-16T00:36:00.631Z,102.18
2022-11-16T00:38:27.403Z,110.13
2022-11-16T00:40:54.133Z,101.03
2022-11-16T00:43:20.899Z,105.38
2022-11-16T00:45:47.779Z,102.28
2022-11-16T00:48:14.431Z,99.07
2022-11-16T00:50:41.325Z,95.10
2022-11-16T00:53:12.190Z,95.97
2022-11-16T00:55:39.391Z,90.93
2022-11-16T00:58:06.404Z,90.57
2022-11-16T01:00:33.365Z,93.80
2022-11-16T01:03:00.125Z,91.25
2022-11-16T01:05:26.828Z,88.97
2022-11-16T01:07:53.767Z,90.78
2022-11-16T01:10:22.638Z,91.32
2022-11-16T01:12:51.038Z,93.05
2022-11-16T01:15:20.207Z,95.95
2022-11-16T01:17:46.775Z,101.05
2022-11-16T01:20:16.517Z,104.43
2022-11-16T01:22:43.719Z,105.38
2022-11-16T01:25:12.519Z,106.80
2022-11-16T01:27:40.072Z,101.05
2022-11-16T01:30:10.327Z,103.07
2022-11-16T01:32:37.589Z,100.97
2022-11-16T01:35:05.921Z,100.78
2022-11-16T01:37:33.318Z,104.75
2022-11-16T01:39:59.956Z,98.78
2022-11-16T01:42:30.047Z,103.25
2022-11-16T01:45:00.493Z,100.20
2022-11-16T01:47:27.889Z,104.57
2022-11-16T01:50:00.921Z,102.47
2022-11-16T01:52:32.925Z,93.10
2022-11-16T01:54:59.895Z,100.70
2022-11-16T01:57:34.129Z,99.18
2022-11-16T02:00:03.841Z,94.65
2022-11-16T02:02:30.762Z,96.68
2022-11-16T02:04:59.937Z,94.85
2022-11-16T02:08:03.210Z,97.30
2022-11-16T02:11:13.113Z,94.38
2022-11-16T02:13:51.649Z,87.68
2022-11-16T02:16:21.140Z,87.60
2022-11-16T02:18:53.135Z,89.00
2022-11-16T02:21:44.230Z,86.57
2022-11-16T02:24:30.020Z,87.82
2022-11-16T02:27:32.286Z,88.90
2022-11-16T02:29:59.319Z,104.47
2022-11-16T02:32:37.567Z,103.05
2022-11-16T02:35:18.510Z,98.43
2022-11-16T02:37:54.767Z,101.10
2022-11-16T02:40:26.230Z,111.55
2022-11-16T02:43:34.583Z,121.68
2022-11-16T02:46:05.477Z,106.50
2022-11-16T02:48:38.041Z,107.90
2022-11-16T02:51:06.534Z,97.65
2022-11-16T02:53:40.427Z,103.35
2022-11-16T02:56:07.323Z,112.22
2022-11-16T02:58:34.477Z,111.90
2022-11-16T03:01:30.086Z,111.43
2022-11-16T03:04:11.540Z,108.47
2022-11-16T03:06:41.617Z,107.75
2022-11-16T03:09:18.533Z,104.65
2022-11-16T03:12:01.697Z,107.88
2022-11-16T03:14:34.230Z,113.85
2022-11-16T03:17:03.868Z,105.78
2022-11-16T03:19:41.748Z,109.97
2022-11-16T03:22:19.958Z,102.75
2022-11-16T03:24:47.506Z,98.93
2022-11-16T03:27:51.879Z,105.57
2022-11-16T03:30:24.014Z,97.32
2022-11-16T03:33:15.641Z,92.03
2022-11-16T03:35:47.003Z,103.88
2022-11-16T03:38:16.064Z,110.50
2022-11-16T03:40:46.192Z,103.55
2022-11-16T03:43:15.651Z,101.70
2022-11-16T03:45:43.534Z,104.85
2022-11-16T03:48:11.613Z,105.78
2022-11-16T03:50:39.091Z,106.35
2022-11-16T03:53:05.729Z,104.72
2022-11-16T03:55:32.373Z,107.15
2022-11-16T03:57:59.033Z,102.72
2022-11-16T04:00:25.675Z,103.60
2022-11-16T04:02:52.245Z,112.85
2022-11-16T04:05:37.398Z,107.18
2022-11-16T04:08:22.491Z,109.75
2022-11-16T04:11:07.729Z,110.32
2022-11-16T04:13:53.928Z,113.60
2022-11-16T04:16:39.050Z,110.13
2022-11-16T04:19:24.320Z,109.22
2022-11-16T04:22:14.493Z,107.50
2022-11-16T04:24:46.826Z,107.70
2022-11-16T04:30:01.354Z,115.60
2022-11-16T04:32:47.096Z,115.20
2022-11-16T04:35:32.715Z,114.68
2022-11-16T04:38:00.080Z,115.25
2022-11-16T04:40:30.613Z,110.88
2022-11-16T04:42:59.719Z,117.53
2022-11-16T04:45:46.852Z,113.35
2022-11-16T04:48:15.403Z,104.47
2022-11-16T04:50:42.454Z,111.32
2022-11-16T04:53:09.898Z,108.80
2022-11-16T04:55:36.547Z,109.88
2022-11-16T04:58:03.554Z,111.47
2022-11-16T05:00:30.330Z,112.57
2022-11-16T05:03:01.299Z,108.95
2022-11-16T05:05:29.086Z,111.65
2022-11-16T05:07:55.797Z,102.18
2022-11-16T05:10:22.598Z,108.20
2022-11-16T05:12:49.389Z,110.00
2022-11-16T05:15:17.870Z,108.40
2022-11-16T05:17:44.435Z,106.97
2022-11-16T05:20:30.233Z,102.88
2022-11-16T05:22:58.470Z,104.72
2022-11-16T05:25:25.437Z,105.55
2022-11-16T05:27:52.265Z,105.45
2022-11-16T05:30:19.164Z,102.88
2022-11-16T05:32:46.019Z,107.72
2022-11-16T05:35:12.939Z,102.63
2022-11-16T05:37:40.034Z,104.70
2022-11-16T05:40:07.718Z,101.80
2022-11-16T05:42:34.867Z,97.80
2022-11-16T05:45:01.584Z,101.63
2022-11-16T05:47:28.303Z,91.57
2022-11-16T05:49:54.950Z,94.45
2022-11-16T05:52:21.588Z,91.97
2022-11-16T05:54:48.194Z,104.88
2022-11-16T05:57:15.527Z,97.80
2022-11-16T05:59:42.719Z,99.07
2022-11-16T06:02:09.544Z,95.85
2022-11-16T06:04:36.174Z,97.63
2022-11-16T06:07:02.953Z,93.57
2022-11-16T06:09:29.830Z,91.13
2022-11-16T06:11:56.549Z,90.57
2022-11-16T06:14:23.227Z,87.88
2022-11-16T06:16:49.972Z,89.10
2022-11-16T06:19:16.681Z,88.13
2022-11-16T06:21:43.316Z,90.35
2022-11-16T06:24:09.989Z,86.05
2022-11-16T06:26:37.188Z,95.05
2022-11-16T06:29:04.267Z,90.97
2022-11-16T06:31:31.214Z,95.43
2022-11-16T06:33:57.827Z,96.82
2022-11-16T06:36:24.421Z,99.53
2022-11-16T06:38:51.343Z,102.78
2022-11-16T06:41:18.331Z,108.05
2022-11-16T06:43:45.179Z,107.43
2022-11-16T06:46:11.889Z,103.85
2022-11-16T06:48:38.655Z,106.70
2022-11-16T06:51:05.460Z,104.55
2022-11-16T06:53:32.449Z,103.47
2022-11-16T06:56:04.172Z,99.80
2022-11-16T06:58:32.320Z,104.35
2022-11-16T07:01:09.138Z,106.53
2022-11-16T07:03:35.818Z,101.50
2022-11-16T07:06:11.409Z,107.60
2022-11-16T07:08:38.882Z,107.03
2022-11-16T07:11:07.250Z,99.70
2022-11-16T07:13:35.387Z,96.95
2022-11-16T07:16:04.552Z,95.63
2022-11-16T07:18:39.808Z,88.60
2022-11-16T07:21:12.168Z,86.00
2022-11-16T07:23:39.358Z,93.57
2022-11-16T07:26:08.206Z,90.93
2022-11-16T07:28:35.829Z,98.00
2022-11-16T07:31:04.773Z,101.93
2022-11-16T07:33:32.129Z,92.97
2022-11-16T07:36:11.253Z,96.20
2022-11-16T07:38:38.386Z,88.68
2022-11-16T07:41:10.356Z,100.60
2022-11-16T07:43:37.195Z,100.20
2022-11-16T07:49:07.035Z,104.22
2022-11-16T07:51:36.985Z,107.25
2022-11-16T07:54:03.675Z,101.10
2022-11-16T07:56:30.524Z,100.75
2022-11-16T07:58:57.314Z,94.75
2022-11-16T08:01:24.041Z,95.97
2022-11-16T08:03:54.286Z,91.20
2022-11-16T08:06:27.136Z,94.38
2022-11-16T08:08:58.562Z,92.97
2022-11-16T08:11:26.602Z,91.63
2022-11-16T08:13:53.323Z,83.93
2022-11-16T08:16:22.270Z,83.63
2022-11-16T08:18:49.301Z,87.15
2022-11-16T08:21:18.473Z,85.50
2022-11-16T08:23:45.905Z,86.07
2022-11-16T08:26:16.480Z,85.88
2022-11-16T08:28:44.895Z,88.20
2022-11-16T08:31:17.684Z,81.75
2022-11-16T08:33:45.102Z,69.85
2022-11-16T08:36:17.224Z,60.58
2022-11-16T08:38:46.323Z,61.22
2022-11-16T08:41:13.590Z,65.80
2022-11-16T08:43:43.590Z,70.50
2022-11-16T08:46:11.611Z,67.80
2022-11-16T08:48:38.921Z,65.18
2022-11-16T08:51:25.238Z,67.30
2022-11-16T08:53:59.668Z,74.57
2022-11-16T08:56:27.575Z,60.63
2022-11-16T08:58:58.395Z,48.72
2022-11-16T09:01:27.921Z,45.63
2022-11-16T09:03:54.896Z,44.53
2022-11-16T09:06:23.321Z,49.08
2022-11-16T09:08:51.083Z,50.28
2022-11-16T09:11:19.975Z,49.53
2022-11-16T09:16:32.225Z,47.00
2022-11-16T09:18:58.886Z,53.58
2022-11-16T09:21:30.350Z,52.75
2022-11-16T09:23:58.464Z,64.18
2022-11-16T09:26:26.379Z,65.60
2022-11-16T09:28:58.504Z,69.72
2022-11-16T09:31:29.513Z,68.35
2022-11-16T09:33:58.918Z,61.35
2022-11-16T09:36:27.573Z,59.45
2022-11-16T09:39:19.422Z,53.42
2022-11-16T09:41:41.710Z,54.88
2022-11-16T09:44:24.168Z,56.08
2022-11-16T09:49:31.012Z,49.22
2022-11-16T09:57:26.111Z,49.45
2022-11-16T09:59:59.219Z,50.92
2022-11-16T10:02:37.515Z,50.80
2022-11-16T10:05:28.080Z,54.70
2022-11-16T10:08:06.539Z,53.95
2022-11-16T10:10:50.956Z,55.22
2022-11-16T10:13:35.740Z,54.25
2022-11-16T10:16:28.809Z,51.75
2022-11-16T10:19:22.576Z,52.22
2022-11-16T10:22:02.274Z,51.50
2022-11-16T10:24:54.824Z,53.72
2022-11-16T10:30:27.382Z,54.33
2022-11-16T10:33:00.514Z,47.75
2022-11-16T10:35:27.159Z,52.45
2022-11-16T10:37:56.853Z,51.83
2022-11-16T10:40:30.579Z,53.20
2022-11-16T10:43:10.582Z,51.63
2022-11-16T10:45:58.394Z,49.70
2022-11-16T10:48:48.868Z,51.03
2022-11-16T10:51:16.012Z,52.58
2022-11-16T10:53:46.346Z,55.40
2022-11-16T10:56:37.691Z,48.35
2022-11-16T10:59:09.587Z,46.90
2022-11-16T11:01:39.532Z,47.50
2022-11-16T11:04:19.373Z,44.92
2022-11-16T11:06:48.929Z,44.45
2022-11-16T11:09:24.675Z,47.58
2022-11-16T11:12:19.777Z,46.00
2022-11-16T11:15:08.119Z,42.22
2022-11-16T11:17:36.231Z,40.88
2022-11-16T11:20:18.380Z,42.88
2022-11-16T11:23:04.638Z,41.17
2022-11-16T11:25:48.554Z,39.60
2022-11-16T11:28:34.716Z,40.78
2022-11-16T11:31:09.927Z,41.10
2022-11-16T11:33:39.764Z,41.78
2022-11-16T11:36:18.738Z,40.85
2022-11-16T11:39:12.942Z,41.08
2022-11-16T11:41:45.035Z,38.38
2022-11-16T11:44:19.841Z,41.35
2022-11-16T11:49:55.518Z,39.95
2022-11-16T11:52:40.649Z,39.05
2022-11-16T11:55:08.847Z,38.75
2022-11-16T11:57:44.135Z,41.13
2022-11-16T12:00:15.651Z,39.92
2022-11-16T12:02:56.389Z,39.70
2022-11-16T12:05:47.574Z,37.00
2022-11-16T12:08:24.061Z,41.20
2022-11-16T12:11:00.574Z,39.67
2022-11-16T12:14:02.530Z,36.65
2022-11-16T12:16:40.189Z,39.40
2022-11-16T12:19:31.702Z,40.80
2022-11-16T12:22:14.894Z,45.08
2022-11-16T12:25:07.464Z,40.88
2022-11-16T12:30:22.326Z,40.45
2022-11-16T12:33:13.915Z,43.78
2022-11-16T12:35:59.309Z,44.40
2022-11-16T12:38:40.146Z,41.25
2022-11-16T12:41:38.440Z,42.15
2022-11-16T12:44:11.173Z,40.38
2022-11-16T12:46:56.954Z,39.65
2022-11-16T12:49:45.586Z,40.83
2022-11-16T12:52:39.530Z,39.20
2022-11-16T12:55:26.435Z,38.85
2022-11-16T12:58:12.257Z,39.78
2022-11-16T13:00:49.617Z,38.35
2022-11-16T13:03:29.673Z,38.78
2022-11-16T13:06:02.190Z,38.90
2022-11-16T13:08:47.236Z,36.85
2022-11-16T13:11:25.894Z,38.85
2022-11-16T13:13:58.164Z,38.83
2022-11-16T13:16:26.326Z,38.67
2022-11-16T13:18:55.218Z,41.50
2022-11-16T13:21:26.898Z,39.30
2022-11-16T13:24:18.567Z,41.55
2022-11-16T13:27:03.109Z,43.17
2022-11-16T13:29:50.475Z,39.85
2022-11-16T13:32:58.988Z,39.88
2022-11-16T13:35:26.462Z,37.22
2022-11-16T13:37:53.257Z,38.90
2022-11-16T13:40:29.089Z,40.80
2022-11-16T13:43:27.477Z,37.78
2022-11-16T13:45:58.980Z,41.72
2022-11-16T13:48:25.566Z,37.92
2022-11-16T13:50:55.994Z,37.00
2022-11-16T13:56:48.931Z,35.30
2022-11-16T13:59:16.922Z,36.47
2022-11-16T14:02:01.166Z,35.10
2022-11-16T14:04:53.272Z,38.35
2022-11-16T14:07:46.513Z,36.33
2022-11-16T14:10:35.028Z,36.83
2022-11-16T14:13:06.362Z,35.38
2022-11-16T14:15:35.894Z,37.10
2022-11-16T14:18:34.386Z,35.63
2022-11-16T14:21:27.471Z,37.60
2022-11-16T14:24:11.182Z,34.85
2022-11-16T14:27:13.799Z,35.45
2022-11-16T14:29:56.640Z,37.20
2022-11-16T14:32:32.039Z,36.05
2022-11-16T14:35:00.771Z,34.50
2022-11-16T14:37:32.565Z,34.67
2022-11-16T14:40:05.618Z,33.15
2022-11-16T14:42:54.386Z,35.10
2022-11-16T14:45:29.629Z,39.67
2022-11-16T14:48:02.773Z,42.95
2022-11-16T14:50:30.429Z,44.05
2022-11-16T14:53:02.809Z,40.08
2022-11-16T14:55:29.832Z,39.95
2022-11-16T14:58:17.982Z,42.25
2022-11-16T15:00:58.250Z,35.95
2022-11-16T15:03:30.315Z,33.70
2022-11-16T15:06:00.314Z,34.00
2022-11-16T15:08:33.590Z,36.20
2022-11-16T15:11:00.928Z,34.55
2022-11-16T15:13:27.680Z,35.50
2022-11-16T15:16:15.932Z,35.13
2022-11-16T15:18:56.568Z,38.28
2022-11-16T15:21:24.536Z,35.78
2022-11-16T15:24:15.631Z,36.38
2022-11-16T15:26:38.703Z,35.25
2022-11-16T15:29:05.801Z,35.85
2022-11-16T15:31:35.116Z,36.47
2022-11-16T15:34:01.724Z,39.53
2022-11-16T15:36:41.220Z,39.25
2022-11-16T15:39:23.677Z,45.80
2022-11-16T15:44:21.109Z,45.10
2022-11-16T15:46:52.041Z,42.33
2022-11-16T15:49:36.964Z,45.63
2022-11-16T15:52:04.137Z,44.63
2022-11-16T15:54:51.781Z,42.30
2022-11-16T15:57:20.163Z,41.45
2022-11-16T15:59:54.575Z,38.92
2022-11-16T16:02:25.007Z,40.13
2022-11-16T16:04:51.927Z,45.47
2022-11-16T16:07:37.307Z,44.88
2022-11-16T16:10:19.036Z,50.72
2022-11-16T16:13:23.930Z,58.35
2022-11-16T16:16:26.482Z,58.45
2022-11-16T16:18:55.773Z,46.10
2022-11-16T16:21:22.896Z,51.75
2022-11-16T16:23:52.697Z,51.13
2022-11-16T16:26:21.706Z,53.00
2022-11-16T16:28:48.486Z,54.42
2022-11-16T16:31:18.545Z,47.35
2022-11-16T16:33:45.587Z,49.65
2022-11-16T16:36:13.595Z,47.65
2022-11-16T16:38:40.468Z,50.17
2022-11-16T16:41:07.733Z,47.72
2022-11-16T16:43:35.459Z,43.78
2022-11-16T16:46:04.217Z,44.50
2022-11-16T16:48:31.144Z,49.55
2022-11-16T16:50:58.054Z,65.13
2022-11-16T16:53:24.968Z,52.65
2022-11-16T16:55:52.021Z,52.13
2022-11-16T16:58:19.240Z,40.97
2022-11-16T17:00:46.371Z,42.70
2022-11-16T17:03:13.107Z,46.75
2022-11-16T17:05:39.856Z,42.42
2022-11-16T17:08:07.791Z,48.22
2022-11-16T17:10:34.485Z,42.05
2022-11-16T17:13:03.218Z,40.40
2022-11-16T17:15:30.360Z,42.45
2022-11-16T17:17:58.961Z,43.92
2022-11-16T17:20:25.781Z,40.10
2022-11-16T17:22:52.786Z,49.53
2022-11-16T17:25:20.758Z,52.78
2022-11-16T17:27:47.551Z,50.10
2022-11-16T17:30:15.055Z,50.65
2022-11-16T17:32:41.885Z,53.75
2022-11-16T17:35:09.276Z,53.33
2022-11-16T17:37:36.170Z,52.33
2022-11-16T17:40:03.320Z,50.88
2022-11-16T17:42:32.596Z,51.75
2022-11-16T17:44:59.446Z,52.28
2022-11-16T17:47:26.123Z,54.40
2022-11-16T17:49:52.997Z,51.00
2022-11-16T17:52:19.878Z,53.92
2022-11-16T17:54:46.439Z,53.58
2022-11-16T17:57:13.216Z,52.58
2022-11-16T17:59:39.894Z,53.97
2022-11-16T18:02:07.008Z,57.03
2022-11-16T18:04:33.986Z,52.65
2022-11-16T18:07:01.284Z,50.67
2022-11-16T18:09:27.918Z,50.42
2022-11-16T18:11:54.844Z,51.10
2022-11-16T18:14:22.418Z,50.53
2022-11-16T18:16:49.131Z,71.03
2022-11-16T18:19:18.093Z,54.38
2022-11-16T18:21:45.613Z,58.92
2022-11-16T18:24:13.158Z,59.97
2022-11-16T18:26:41.097Z,61.08
2022-11-16T18:29:09.357Z,60.08
2022-11-16T18:31:35.922Z,58.75
2022-11-16T18:34:02.990Z,58.20
2022-11-16T18:36:29.901Z,54.53
2022-11-16T18:38:56.533Z,54.17
2022-11-16T18:41:55.096Z,53.58
2022-11-16T18:44:22.437Z,52.05
2022-11-16T18:46:49.170Z,54.38
2022-11-16T18:49:16.082Z,56.10
2022-11-16T18:51:42.738Z,54.65
2022-11-16T18:54:09.704Z,55.35
2022-11-16T18:56:37.068Z,51.42
2022-11-16T18:59:04.058Z,54.58
2022-11-16T19:01:31.031Z,51.78
2022-11-16T19:03:57.954Z,56.88
2022-11-16T19:06:24.732Z,55.28
2022-11-16T19:08:59.315Z,57.97
2022-11-16T19:11:28.429Z,55.75
2022-11-16T19:13:58.585Z,58.80
2022-11-16T19:16:25.589Z,57.22
2022-11-16T19:18:53.004Z,59.28
2022-11-16T19:21:19.925Z,60.00
2022-11-16T19:23:49.002Z,63.28
2022-11-16T19:26:17.586Z,59.42
2022-11-16T19:28:46.169Z,61.88
2022-11-16T19:31:33.157Z,62.75
2022-11-16T19:34:03.313Z,63.03
2022-11-16T19:36:31.842Z,64.05
2022-11-16T19:38:58.768Z,61.92
2022-11-16T19:41:26.564Z,57.60
2022-11-16T19:43:59.086Z,60.00
2022-11-16T19:46:28.049Z,61.35
2022-11-16T19:48:55.834Z,60.45
2022-11-16T19:51:31.640Z,63.85
2022-11-16T19:54:00.094Z,64.13
2022-11-16T19:56:27.619Z,62.03
2022-11-16T19:58:54.708Z,62.55
2022-11-16T20:01:28.122Z,62.80
2022-11-16T20:03:57.470Z,64.30
2022-11-16T20:06:29.330Z,65.68
2022-11-16T20:09:00.566Z,63.13
2022-11-16T20:11:36.117Z,64.63
2022-11-16T20:14:05.396Z,65.80
2022-11-16T20:16:38.695Z,66.15
2022-11-16T20:19:07.618Z,68.82
2022-11-16T20:21:39.707Z,67.90
2022-11-16T20:24:09.004Z,70.78
2022-11-16T20:26:37.687Z,65.22
2022-11-16T20:29:04.574Z,62.97
2022-11-16T20:31:33.075Z,61.80
2022-11-16T20:34:02.493Z,65.13
2022-11-16T20:36:31.514Z,68.68
2022-11-16T20:38:59.481Z,69.90
2022-11-16T20:41:28.298Z,74.13
2022-11-16T20:43:57.049Z,74.45
2022-11-16T20:46:28.939Z,76.78
2022-11-16T20:48:57.290Z,74.63
2022-11-16T20:51:24.145Z,79.03
2022-11-16T20:53:52.091Z,82.63
2022-11-16T20:56:20.434Z,78.78
2022-11-16T20:58:48.037Z,72.57
2022-11-16T21:01:29.040Z,70.10
2022-11-16T21:03:57.523Z,75.32
2022-11-16T21:06:24.642Z,76.53
2022-11-16T21:08:52.181Z,75.05
2022-11-16T21:11:51.615Z,70.05
2022-11-16T21:14:19.989Z,60.40
2022-11-16T21:16:46.770Z,59.88
2022-11-16T21:19:13.901Z,64.85
2022-11-16T21:21:41.372Z,58.53
2022-11-16T21:24:09.136Z,54.28
2022-11-16T21:26:37.322Z,57.05
2022-11-16T21:29:04.794Z,57.60
2022-11-16T21:31:34.302Z,56.25
2022-11-16T21:34:01.635Z,56.65
2022-11-16T21:36:30.759Z,62.55
2022-11-16T21:39:00.613Z,57.97
2022-11-16T21:41:27.865Z,57.00
2022-11-16T21:43:55.352Z,54.60
2022-11-16T21:46:27.340Z,59.13
2022-11-16T21:48:56.465Z,58.67
2022-11-16T21:51:26.080Z,56.55
2022-11-16T21:53:52.968Z,56.72
2022-11-16T21:56:22.214Z,56.97
2022-11-16T21:58:50.601Z,57.20
2022-11-16T22:01:17.373Z,58.47
2022-11-16T22:03:44.860Z,58.78
2022-11-16T22:06:33.410Z,57.85
2022-11-16T22:09:00.651Z,53.03
2022-11-16T22:11:27.306Z,54.97
2022-11-16T22:13:53.863Z,55.40
2022-11-16T22:16:23.339Z,55.78
2022-11-16T22:18:50.284Z,52.70
2022-11-16T22:21:17.206Z,50.47
2022-11-16T22:23:43.863Z,51.33
2022-11-16T22:26:12.905Z,53.38
2022-11-16T22:28:39.956Z,49.40
2022-11-16T22:31:09.924Z,45.63
2022-11-16T22:33:37.655Z,46.97
2022-11-16T22:36:05.422Z,46.78
2022-11-16T22:38:33.474Z,37.38
2022-11-16T22:41:00.205Z,37.90
2022-11-16T22:43:29.778Z,39.83
2022-11-16T22:46:05.307Z,43.65
2022-11-16T22:48:34.762Z,44.63
2022-11-16T22:51:05.957Z,47.35
2022-11-16T22:53:33.145Z,48.90
2022-11-16T22:56:07.966Z,48.75
2022-11-16T22:58:35.626Z,46.20
2022-11-16T23:01:02.904Z,45.72
2022-11-16T23:03:31.142Z,46.25
2022-11-16T23:05:58.055Z,44.40
2022-11-16T23:08:25.070Z,45.10
2022-11-16T23:11:26.752Z,39.70
2022-11-16T23:14:13.033Z,46.10
2022-11-16T23:16:40.510Z,46.05
2022-11-16T23:19:27.117Z,48.53
2022-11-16T23:22:13.451Z,50.83
2022-11-16T23:24:59.111Z,52.50
2022-11-16T23:27:29.512Z,51.70
2022-11-16T23:30:01.685Z,47.15
2022-11-16T23:32:29.672Z,49.88
2022-11-16T23:34:56.393Z,50.97
2022-11-16T23:37:23.528Z,53.15
2022-11-16T23:39:50.173Z,48.45
2022-11-16T23:42:35.610Z,45.42
2022-11-16T23:45:02.846Z,45.53
2022-11-16T23:47:29.589Z,43.33
2022-11-16T23:49:56.283Z,42.50
2022-11-16T23:52:23.164Z,37.63
2022-11-16T23:54:49.912Z,29.50
2022-11-16T23:57:16.741Z,28.50
2022-11-16T23:59:43.735Z,25.38
